Time;durP1;ratioP1;P1;durP2;ratioP2;P2;SDS_P1;SDS_P2;PMS_P1;PMS_P2;Temp;Humidity;BMP_temperature;BMP_pressure;BME280_temperature;BME280_humidity;BME280_pressure;Samples;Min_cycle;Max_cycle;Signal;HPM_P1;HPM_P2
2021/03/17 00:01:19;;;;;;;;;;;1.10;99.90;;;-0.02;92.99;96020.13;10244859;28;1826;-83
2021/03/17 00:06:21;;;;;;;;;;;1.80;99.90;;;0.15;93.74;96023.22;10271672;28;1933;-84
2021/03/17 00:11:23;;;;;;;;;;;1.10;99.90;;;0.28;93.67;96025.06;10242112;29;1382;-86
2021/03/17 00:16:34;;;;;;;;;;;1.30;99.90;;;0.37;92.25;96023.00;10256968;29;1822;-84
2021/03/17 00:21:36;;;;;;;;;;;1.40;99.90;;;0.45;92.80;96022.81;10266607;28;1765;-83
2021/03/17 00:26:38;;;;;;;;;;;2.00;99.90;;;0.04;93.37;96028.28;10273782;28;1895;-83
2021/03/17 00:31:39;;;;;;;;;;;1.70;99.90;;;0.02;94.04;96017.91;10248190;29;1649;-85
2021/03/17 00:36:41;;;;;;;;;;;1.10;99.90;;;0.12;94.68;96020.97;10240930;29;1817;-85
2021/03/17 00:41:43;;;;;;;;;;;1.10;99.90;;;0.06;94.35;96000.63;10272307;29;2006;-84
2021/03/17 00:46:57;;;;;;;;;;;1.20;99.90;;;0.07;94.95;95998.81;10256441;29;1958;-84
2021/03/17 00:51:59;;;;;;;;;;;1.20;99.90;;;-0.02;94.84;96001.63;10247894;29;1967;-83
2021/03/17 00:57:01;;;;;;;;;;;1.10;99.90;;;-0.03;95.05;95991.28;10237117;29;2014;-83
2021/03/17 01:02:03;;;;;;;;;;;1.00;99.90;;;-0.01;95.93;95992.69;10255380;29;1944;-83
2021/03/17 01:07:08;;;;;;;;;;;1.00;99.90;;;-0.03;96.37;95973.59;10262772;29;1919;-84
2021/03/17 01:12:09;;;;;;;;;;;1.10;99.90;;;-0.05;96.07;95972.16;10253165;29;1972;-82
2021/03/17 01:17:17;;;;;;;;;;;1.60;99.90;;;0.07;96.36;95964.47;10257626;29;2002;-83
2021/03/17 01:22:20;;;;;;;;;;;1.60;99.90;;;0.16;96.46;95971.97;10262053;29;1980;-83
2021/03/17 01:27:22;;;;;;;;;;;1.10;99.90;;;0.24;96.41;95963.00;10244517;29;2193;-85
2021/03/17 01:32:23;;;;;;;;;;;1.30;99.90;;;0.29;95.61;95963.22;10229800;29;1892;-85
2021/03/17 01:37:25;;;;;;;;;;;1.30;99.90;;;0.16;95.72;95976.44;10252700;29;1908;-84
2021/03/17 01:42:27;;;;;;;;;;;1.40;99.90;;;-0.06;95.87;95971.38;10262343;28;2072;-85
2021/03/17 01:47:38;;;;;;;;;;;1.20;99.90;;;-0.21;96.10;95954.06;10227213;29;2070;-84
2021/03/17 01:52:40;;;;;;;;;;;0.90;99.90;;;-0.36;96.88;95951.59;10219792;29;1758;-85
2021/03/17 01:57:42;;;;;;;;;;;0.80;99.90;;;-0.36;97.09;95948.97;10213962;29;2035;-85
2021/03/17 02:02:44;;;;;;;;;;;0.80;99.90;;;-0.38;97.51;95949.16;10232806;29;1874;-84
2021/03/17 02:07:46;;;;;;;;;;;0.80;99.90;;;-0.37;97.14;95945.50;10213680;29;2005;-85
2021/03/17 02:12:49;;;;;;;;;;;0.70;99.90;;;-0.36;97.21;95930.47;10232474;29;1996;-84
2021/03/17 02:18:04;;;;;;;;;;;0.70;99.90;;;-0.32;97.59;95932.53;10230483;29;2112;-83
2021/03/17 02:23:09;;;;;;;;;;;0.70;99.90;;;-0.28;97.98;95917.88;10223408;29;2482;-85
2021/03/17 02:28:10;;;;;;;;;;;1.40;99.90;;;-0.25;97.74;95916.69;10236196;29;2088;-83
2021/03/17 02:33:12;;;;;;;;;;;1.50;99.90;;;-0.16;97.67;95910.16;10251274;29;2185;-84
2021/03/17 02:38:14;;;;;;;;;;;0.90;99.90;;;-0.17;97.51;95916.47;10250618;29;2133;-84
2021/03/17 02:43:15;;;;;;;;;;;0.90;99.90;;;-0.16;97.81;95910.16;10251245;29;1808;-84
2021/03/17 02:48:23;;;;;;;;;;;0.90;99.90;;;-0.13;97.57;95908.94;10254968;29;2087;-84
2021/03/17 02:53:25;;;;;;;;;;;2.10;99.90;;;-0.13;97.89;95915.03;10261833;29;2190;-83
2021/03/17 02:58:26;;;;;;;;;;;0.90;99.90;;;-0.04;97.47;95913.81;10249352;29;2123;-84
2021/03/17 03:03:28;;;;;;;;;;;1.00;99.90;;;-0.09;97.34;95905.69;10251055;29;2162;-85
2021/03/17 03:08:30;;;;;;;;;;;1.00;99.90;;;-0.17;97.57;95907.72;10235488;29;2135;-83
2021/03/17 03:13:32;;;;;;;;;;;1.80;99.90;;;-0.15;97.12;95911.78;10248196;29;2088;-83
2021/03/17 03:18:49;;;;;;;;;;;0.90;99.90;;;-0.17;97.40;95905.91;10240020;29;1911;-84
2021/03/17 03:23:51;;;;;;;;;;;0.90;99.90;;;-0.19;97.23;95902.66;10246997;29;2134;-84
2021/03/17 03:28:53;;;;;;;;;;;0.90;99.90;;;-0.17;97.45;95902.44;10253575;29;2000;-82
2021/03/17 03:33:55;;;;;;;;;;;1.00;99.90;;;-0.11;97.42;95902.44;10246265;29;2028;-84
2021/03/17 03:38:56;;;;;;;;;;;1.00;99.90;;;-0.06;97.66;95902.66;10237022;29;2083;-82
2021/03/17 03:43:58;;;;;;;;;;;0.90;99.90;;;-0.16;97.65;95904.88;10249771;29;2060;-82
2021/03/17 03:49:07;;;;;;;;;;;0.90;99.90;;;-0.23;97.55;95903.25;10256943;28;1971;-82
2021/03/17 03:54:09;;;;;;;;;;;2.00;99.90;;;-0.17;97.78;95897.97;10276256;28;2073;-84
2021/03/17 03:59:10;;;;;;;;;;;0.80;99.90;;;-0.19;97.80;95902.66;10252535;28;1649;-81
2021/03/17 04:04:12;;;;;;;;;;;0.90;99.90;;;-0.17;97.83;95897.97;10267854;29;2083;-82
2021/03/17 04:09:14;;;;;;;;;;;2.00;99.90;;;-0.21;97.84;95901.22;10264976;29;1962;-82
2021/03/17 04:14:16;;;;;;;;;;;0.90;99.90;;;-0.21;97.66;95902.03;10258777;29;2080;-84
2021/03/17 04:19:29;;;;;;;;;;;0.90;99.90;;;-0.19;98.08;95894.72;10252991;29;2088;-82
2021/03/17 04:24:31;;;;;;;;;;;0.90;99.90;;;-0.17;98.19;95905.91;10255897;28;2071;-84
2021/03/17 04:29:33;;;;;;;;;;;1.00;99.90;;;-0.08;97.78;95904.66;10271114;29;1946;-83
2021/03/17 04:34:34;;;;;;;;;;;0.90;99.90;;;-0.08;97.72;95912.59;10253675;28;2214;-84
2021/03/17 04:39:36;;;;;;;;;;;1.00;99.90;;;-0.07;98.16;95908.13;10230135;29;2033;-84
2021/03/17 04:44:38;;;;;;;;;;;1.00;99.90;;;-0.02;97.71;95911.78;10238657;29;2025;-82
2021/03/17 04:49:53;;;;;;;;;;;1.00;99.90;;;-0.01;97.65;95912.59;10229052;29;2144;-84
2021/03/17 04:54:55;;;;;;;;;;;1.10;99.90;;;-0.01;97.59;95913.41;10230807;29;2032;-84
2021/03/17 04:59:57;;;;;;;;;;;1.00;99.90;;;-0.03;97.23;95914.63;10225210;29;2141;-82
2021/03/17 05:04:59;;;;;;;;;;;2.00;99.90;;;-0.02;97.29;95910.97;10233797;29;1989;-82
2021/03/17 05:10:00;;;;;;;;;;;1.00;99.90;;;-0.03;97.28;95912.81;10250828;29;2361;-83
2021/03/17 05:15:02;;;;;;;;;;;1.40;99.90;;;-0.04;97.21;95916.47;10247572;29;1674;-85
2021/03/17 05:20:16;;;;;;;;;;;1.00;99.90;;;-0.03;97.66;95915.44;10238437;29;2228;-85
2021/03/17 05:25:17;;;;;;;;;;;2.20;99.90;;;-0.01;97.54;95921.31;10251435;29;1993;-85
2021/03/17 05:30:19;;;;;;;;;;;1.00;99.90;;;-0.06;97.43;95926.44;10262464;29;1972;-85
2021/03/17 05:35:21;;;;;;;;;;;1.00;99.90;;;-0.02;97.13;95932.13;10273130;28;1911;-84
2021/03/17 05:40:23;;;;;;;;;;;1.10;99.90;;;0.03;97.14;95928.88;10257919;28;1444;-86
2021/03/17 05:45:25;;;;;;;;;;;1.00;99.90;;;0.08;97.07;95926.44;10254489;28;1983;-84
2021/03/17 05:50:44;;;;;;;;;;;2.10;99.90;;;0.18;97.36;95919.69;10268258;28;2234;-84
2021/03/17 05:55:46;;;;;;;;;;;1.10;99.90;;;0.25;97.14;95917.88;10248747;28;1470;-84
2021/03/17 06:00:48;;;;;;;;;;;1.20;99.90;;;0.26;96.50;95929.28;10280599;28;1729;-85
2021/03/17 06:05:50;;;;;;;;;;;1.20;99.90;;;0.26;96.05;95942.50;10257665;28;1836;-85
2021/03/17 06:10:52;;;;;;;;;;;1.30;99.90;;;0.20;95.92;95945.94;10258929;29;1915;-85
2021/03/17 06:15:54;;;;;;;;;;;1.30;99.90;;;0.24;96.37;95947.16;10249387;29;2060;-85
2021/03/17 06:21:03;;;;;;;;;;;1.30;99.90;;;0.26;95.87;95955.72;10248201;29;2174;-85
2021/03/17 06:26:05;;;;;;;;;;;1.90;99.90;;;0.47;95.47;95963.41;10258256;28;1721;-82
2021/03/17 06:31:07;;;;;;;;;;;1.40;99.90;;;0.43;94.57;95967.47;10238355;29;1990;-83
2021/03/17 06:36:09;;;;;;;;;;;1.50;99.90;;;0.36;94.27;95977.25;10231851;29;2045;-82
2021/03/17 06:41:11;;;;;;;;;;;1.40;99.90;;;0.30;94.40;95977.25;10222777;29;2027;-83
2021/03/17 06:46:13;;;;;;;;;;;1.30;99.90;;;0.32;93.42;95975.19;10256837;29;1939;-80
2021/03/17 06:51:35;;;;;;;;;;;1.30;99.90;;;0.39;92.54;95984.78;10263228;29;1793;-86
2021/03/17 06:56:37;;;;;;;;;;;1.40;99.90;;;0.44;91.68;95984.97;10260511;29;1920;-85
2021/03/17 07:01:40;;;;;;;;;;;1.40;99.90;;;0.57;90.65;95993.91;10232499;29;2007;-85
2021/03/17 07:06:43;;;;;;;;;;;1.60;99.90;;;0.70;90.65;95999.16;10261257;29;1922;-84
2021/03/17 07:11:46;;;;;;;;;;;1.70;99.90;;;0.78;89.82;96001.63;10237472;29;1828;-84
2021/03/17 07:16:52;;;;;;;;;;;1.70;99.90;;;0.86;90.39;96004.03;10225211;29;1832;-85
2021/03/17 07:22:00;;;;;;;;;;;1.80;99.90;;;0.98;90.37;96007.69;10223509;29;2097;-87
2021/03/17 07:27:02;;;;;;;;;;;1.90;99.90;;;0.97;90.20;96006.06;10256652;29;1891;-84
2021/03/17 07:32:04;;;;;;;;;;;1.90;99.90;;;0.93;89.78;96001.38;10241256;29;1677;-84
2021/03/17 07:37:06;;;;;;;;;;;2.00;99.90;;;1.04;89.30;96004.19;10243580;29;1833;-85
2021/03/17 07:42:08;;;;;;;;;;;1.90;99.90;;;1.00;89.58;96002.97;10221935;29;2008;-84
2021/03/17 07:47:10;;;;;;;;;;;3.10;99.90;;;1.16;88.83;96017.63;10198853;29;1907;-83
2021/03/17 07:52:19;;;;;;;;;;;2.10;99.90;;;1.10;88.49;96022.94;10219728;29;1847;-86
2021/03/17 07:57:23;;;;;;;;;;;2.10;99.90;;;1.21;88.88;96016.97;10239872;29;2255;-82
2021/03/17 08:02:28;;;;;;;;;;;2.20;99.90;;;1.41;85.58;96011.63;10240135;29;1996;-83
2021/03/17 08:07:30;;;;;;;;;;;2.80;99.90;;;1.52;87.04;96011.75;10217710;29;2054;-83
2021/03/17 08:12:32;;;;;;;;;;;2.40;99.90;;;1.99;86.59;96004.38;10239343;29;1979;-83
2021/03/17 08:17:34;;;;;;;;;;;2.80;99.90;;;2.37;81.59;96006.97;10218098;29;1668;-86
2021/03/17 08:22:43;;;;;;;;;;;3.80;99.90;;;2.43;80.25;96010.59;10233552;29;2026;-85
2021/03/17 08:27:45;;;;;;;;;;;3.40;99.90;;;2.33;82.27;96008.41;10244776;29;1919;-84
2021/03/17 08:32:47;;;;;;;;;;;3.30;99.90;;;2.63;80.87;96008.56;10234439;29;1852;-85
2021/03/17 08:37:50;;;;;;;;;;;3.40;99.90;;;3.19;78.13;96001.50;10242558;29;2023;-82
2021/03/17 08:42:52;;;;;;;;;;;3.80;99.90;;;3.12;76.67;96001.56;10228451;29;2095;-83
2021/03/17 08:47:54;;;;;;;;;;;3.90;99.90;;;3.12;75.94;95998.91;10243279;28;1983;-84
2021/03/17 08:53:06;;;;;;;;;;;3.90;99.90;;;3.28;75.13;96002.00;10248917;29;1891;-83
2021/03/17 08:58:09;;;;;;;;;;;5.00;99.90;;;3.42;74.44;95998.16;10243979;29;2101;-83
2021/03/17 09:03:11;;;;;;;;;;;4.10;99.90;;;3.82;72.13;95993.16;10240184;29;1947;-84
2021/03/17 09:08:13;;;;;;;;;;;4.30;99.90;;;4.20;73.35;96000.78;10241658;29;1991;-83
2021/03/17 09:13:15;;;;;;;;;;;4.70;99.90;;;3.41;70.65;96009.81;10224564;29;1909;-82
2021/03/17 09:18:17;;;;;;;;;;;6.10;99.90;;;3.43;74.82;96002.44;10229008;29;1576;-84
2021/03/17 09:23:32;;;;;;;;;;;4.10;99.90;;;2.66;78.29;96008.13;10233115;29;1979;-85
2021/03/17 09:28:34;;;;;;;;;;;5.70;99.90;;;1.93;82.58;96018.50;10238486;29;1891;-83
2021/03/17 09:33:37;;;;;;;;;;;4.20;99.90;;;1.59;85.36;96024.97;10229308;29;1978;-84
2021/03/17 09:38:39;;;;;;;;;;;2.70;99.90;;;0.96;88.10;96028.25;10252545;29;1983;-83
2021/03/17 09:43:41;;;;;;;;;;;3.80;99.90;;;0.78;90.31;96033.38;10240859;29;1571;-85
2021/03/17 09:48:45;;;;;;;;;;;2.00;99.90;;;1.04;89.84;96035.97;10258832;28;3245;-82
2021/03/17 09:53:56;;;;;;;;;;;1.90;99.90;;;1.32;87.17;96029.56;10245663;29;3703;-83
2021/03/17 09:58:58;;;;;;;;;;;2.10;99.90;;;1.98;86.95;96015.22;10254555;29;1935;-82
2021/03/17 10:04:00;;;;;;;;;;;2.50;99.90;;;2.16;83.42;96009.97;10252559;29;1816;-82
2021/03/17 10:09:03;;;;;;;;;;;2.80;99.90;;;1.93;83.30;96007.88;10258919;29;3325;-83
2021/03/17 10:14:05;;;;;;;;;;;2.90;99.90;;;1.82;83.38;96000.59;10241116;29;1965;-83
2021/03/17 10:19:07;;;;;;;;;;;2.90;99.90;;;1.96;83.71;95980.94;10242327;29;1928;-82
2021/03/17 10:24:21;;;;;;;;;;;4.50;99.90;;;1.87;82.64;95980.38;10224808;29;1917;-86
2021/03/17 10:29:23;;;;;;;;;;;3.00;99.90;;;2.08;80.82;95979.22;10239427;29;2296;-84
2021/03/17 10:34:25;;;;;;;;;;;4.90;99.90;;;2.25;80.02;95970.75;10227737;29;1692;-85
2021/03/17 10:39:27;;;;;;;;;;;3.30;99.90;;;2.58;80.53;95970.44;10233315;29;1864;-86
2021/03/17 10:44:32;;;;;;;;;;;4.20;99.90;;;2.82;76.68;95961.63;10225105;29;1962;-83
2021/03/17 10:49:34;;;;;;;;;;;4.70;99.90;;;3.19;75.89;95957.16;10226555;29;2136;-84
2021/03/17 10:54:43;;;;;;;;;;;3.90;99.90;;;4.70;72.24;95947.13;10231783;29;1995;-85
2021/03/17 10:59:58;;;;;;;;;;;6.20;99.90;;;4.89;68.83;95940.63;10265285;29;1618;-83
2021/03/17 11:05:00;;;;;;;;;;;5.60;99.90;;;4.73;66.40;95940.53;10265526;29;1903;-84
2021/03/17 11:10:01;;;;;;;;;;;5.80;99.90;;;3.84;69.39;95947.72;10265857;29;2030;-85
2021/03/17 11:15:03;;;;;;;;;;;5.30;99.90;;;3.09;73.53;95954.19;10231208;29;1939;-83
2021/03/17 11:20:05;;;;;;;;;;;4.50;99.90;;;2.95;72.13;95947.41;10226925;29;1883;-84
2021/03/17 11:25:07;;;;;;;;;;;4.10;99.90;;;3.11;66.42;95943.34;10231945;29;2350;-85
2021/03/17 11:30:09;;;;;;;;;;;5.90;99.90;;;3.44;67.23;95935.78;10236433;29;2049;-85
2021/03/17 11:35:11;;;;;;;;;;;4.30;99.90;;;3.98;71.73;95933.19;10233821;29;3189;-86
2021/03/17 11:40:13;;;;;;;;;;;4.70;99.90;;;2.92;72.85;95963.78;10212059;29;3146;-84
2021/03/17 11:45:15;;;;;;;;;;;4.30;99.90;;;2.33;77.81;95959.84;10239653;29;1895;-87
2021/03/17 11:50:27;;;;;;;;;;;3.60;99.90;;;1.55;84.22;95976.91;10242675;29;1915;-85
2021/03/17 11:55:45;;;;;;;;;;;3.00;99.90;;;1.13;87.06;95978.31;10242503;29;2138;-86
2021/03/17 12:00:47;;;;;;;;;;;3.50;99.90;;;1.23;85.59;95977.88;10232875;29;2141;-87
2021/03/17 12:06:07;;;;;;;;;;;3.20;99.90;;;1.44;86.37;95984.69;10262497;29;2046;-86
2021/03/17 12:11:13;;;;;;;;;;;3.00;99.90;;;1.57;84.43;95979.34;10242774;29;1914;-84
2021/03/17 12:16:16;;;;;;;;;;;2.40;99.90;;;1.73;80.11;95978.03;10242681;29;1688;-86
2021/03/17 12:21:18;;;;;;;;;;;2.60;99.90;;;2.10;79.97;95974.53;10244785;29;3235;-88
2021/03/17 12:26:21;;;;;;;;;;;2.80;99.90;;;2.41;76.59;95980.78;10230384;29;3225;-85
2021/03/17 12:31:24;;;;;;;;;;;3.30;99.90;;;2.40;74.46;95969.38;10245531;29;3027;-86
2021/03/17 12:36:26;;;;;;;;;;;3.40;99.90;;;2.42;72.67;95971.81;10250726;29;1696;-86
2021/03/17 12:41:28;;;;;;;;;;;3.40;99.90;;;2.84;70.42;95958.75;10248584;29;2081;-87
2021/03/17 12:46:30;;;;;;;;;;;5.00;99.90;;;2.38;63.94;95955.53;10272627;29;1757;-86
2021/03/17 12:51:32;;;;;;;;;;;3.50;99.90;;;2.34;65.90;95958.81;10283862;28;2072;-82
2021/03/17 12:56:34;;;;;;;;;;;3.40;99.90;;;2.34;66.68;95956.16;10257546;29;1891;-81
2021/03/17 13:01:36;;;;;;;;;;;4.10;99.90;;;2.51;65.20;95959.09;10251278;29;1959;-82
2021/03/17 13:06:39;;;;;;;;;;;4.80;99.90;;;2.38;66.19;95957.38;10256372;29;1874;-83
2021/03/17 13:11:40;;;;;;;;;;;4.40;99.90;;;2.55;70.35;95952.31;10258453;29;1665;-84
2021/03/17 13:16:43;;;;;;;;;;;5.10;99.90;;;2.57;69.87;95948.41;10246070;29;2031;-84
2021/03/17 13:21:45;;;;;;;;;;;3.50;99.90;;;2.97;69.00;95948.00;10234924;29;1883;-84
2021/03/17 13:26:47;;;;;;;;;;;3.70;99.90;;;3.35;67.17;95953.06;10249015;29;1958;-86
2021/03/17 13:31:49;;;;;;;;;;;4.10;99.90;;;3.72;65.07;95955.66;10249353;29;2021;-86
2021/03/17 13:36:53;;;;;;;;;;;5.90;99.90;;;3.74;63.89;95945.59;10228882;29;2019;-84
2021/03/17 13:41:55;;;;;;;;;;;6.30;99.90;;;3.27;59.24;95955.22;10248643;29;2165;-84
2021/03/17 13:46:57;;;;;;;;;;;4.30;99.90;;;2.98;61.31;95950.41;10239166;29;1991;-84
2021/03/17 13:51:59;;;;;;;;;;;4.00;99.90;;;2.91;63.23;95943.56;10243661;29;2014;-83
2021/03/17 13:57:01;;;;;;;;;;;3.90;99.90;;;2.96;61.96;95943.72;10231673;29;1987;-83
2021/03/17 14:02:04;;;;;;;;;;;3.90;99.90;;;3.30;63.23;95946.78;10242842;29;2204;-81
2021/03/17 14:07:05;;;;;;;;;;;4.10;99.90;;;3.24;64.21;95943.19;10239862;29;2007;-81
2021/03/17 14:12:07;;;;;;;;;;;4.30;99.90;;;3.27;63.38;95939.28;10227005;29;2165;-83
2021/03/17 14:17:09;;;;;;;;;;;4.30;99.90;;;2.93;65.26;95938.88;10238690;29;2011;-85
2021/03/17 14:22:12;;;;;;;;;;;4.00;99.90;;;2.95;67.75;95944.75;10258147;29;2189;-85
2021/03/17 14:27:18;;;;;;;;;;;3.90;99.90;;;2.91;66.26;95944.38;10232659;29;1995;-83
2021/03/17 14:32:20;;;;;;;;;;;4.00;99.90;;;2.46;64.87;95958.91;10237057;29;1994;-82
2021/03/17 14:37:22;;;;;;;;;;;3.80;99.90;;;1.25;76.87;95989.06;10247144;29;2038;-83
2021/03/17 14:42:24;;;;;;;;;;;2.90;99.90;;;0.79;80.32;95979.44;10255208;29;1936;-84
2021/03/17 14:47:26;;;;;;;;;;;2.20;99.90;;;0.99;80.42;95974.06;10243987;29;1982;-85
2021/03/17 14:52:28;;;;;;;;;;;2.00;99.90;;;1.38;80.46;95969.66;10261034;29;1701;-82
2021/03/17 14:57:44;;;;;;;;;;;2.20;99.90;;;1.93;79.92;95962.81;10252768;29;1718;-85
2021/03/17 15:02:46;;;;;;;;;;;2.60;99.90;;;2.24;75.99;95969.13;10252271;29;1860;-84
2021/03/17 15:07:48;;;;;;;;;;;3.10;99.90;;;2.35;75.50;95965.75;10274682;29;1925;-84
2021/03/17 15:12:50;;;;;;;;;;;3.20;99.90;;;2.47;75.26;95977.28;10259391;29;1959;-82
2021/03/17 15:17:52;;;;;;;;;;;3.30;99.90;;;2.40;72.20;95973.88;10239201;29;1841;-84
2021/03/17 15:22:54;;;;;;;;;;;4.00;99.90;;;2.36;72.02;95975.34;10240689;29;3157;-85
2021/03/17 15:28:07;;;;;;;;;;;3.30;99.90;;;2.55;73.59;95968.25;10236743;29;1955;-85
2021/03/17 15:33:08;;;;;;;;;;;3.40;99.90;;;2.58;72.75;95971.25;10271165;28;2068;-84
2021/03/17 15:43:57;;;;;;;;;;;3.40;99.90;;;2.33;69.85;95975.78;10262080;29;1781;-85
2021/03/17 15:48:59;;;;;;;;;;;3.40;99.90;;;2.45;72.95;95989.94;10267747;29;1985;-84
2021/03/17 15:54:04;;;;;;;;;;;5.20;99.90;;;2.47;71.41;95977.28;10242115;29;1948;-85
2021/03/17 15:59:17;;;;;;;;;;;4.10;99.90;;;2.42;71.59;95982.44;10271299;28;1835;-86
2021/03/17 16:04:19;;;;;;;;;;;3.40;99.90;;;2.35;71.69;95997.56;10250041;29;1904;-83
2021/03/17 16:09:21;;;;;;;;;;;3.50;99.90;;;2.38;72.13;95992.66;10256504;29;1903;-82
2021/03/17 16:14:23;;;;;;;;;;;5.30;99.90;;;2.42;69.03;95991.22;10253796;29;2006;-83
2021/03/17 16:19:25;;;;;;;;;;;3.50;99.90;;;2.37;72.83;96000.84;10256669;29;1633;-84
2021/03/17 16:24:26;;;;;;;;;;;3.40;99.90;;;2.27;71.61;96000.50;10255129;29;1907;-84
2021/03/17 16:29:28;;;;;;;;;;;3.30;99.90;;;2.25;72.76;96006.03;10255918;29;2060;-81
2021/03/17 16:34:30;;;;;;;;;;;3.30;99.90;;;2.27;70.98;96000.50;10274005;28;1661;-84
2021/03/17 16:39:33;;;;;;;;;;;3.30;99.90;;;2.22;70.75;96013.59;10254434;29;1839;-82
2021/03/17 16:44:36;;;;;;;;;;;3.30;99.90;;;2.23;70.90;96007.25;10242034;29;1999;-83
2021/03/17 16:49:38;;;;;;;;;;;5.20;99.90;;;2.16;72.64;96016.09;10275569;29;1980;-82
2021/03/17 16:54:40;;;;;;;;;;;3.30;99.90;;;2.06;69.19;96015.75;10245962;29;1530;-81
2021/03/17 16:59:42;;;;;;;;;;;3.90;99.90;;;1.97;72.15;96011.72;10251875;28;2022;-85
2021/03/17 17:04:44;;;;;;;;;;;3.10;99.90;;;1.94;72.53;96021.94;10257115;29;1986;-85
2021/03/17 17:09:46;;;;;;;;;;;3.90;99.90;;;1.86;70.39;96023.03;10250639;28;2077;-85
2021/03/17 17:14:48;;;;;;;;;;;3.00;99.90;;;1.80;69.67;96027.31;10263607;29;1877;-86
2021/03/17 17:19:50;;;;;;;;;;;3.00;99.90;;;1.73;68.12;96033.69;10258678;29;1896;-83
2021/03/17 17:24:52;;;;;;;;;;;2.90;99.90;;;1.58;68.58;96045.34;10237791;29;3398;-85
2021/03/17 17:29:54;;;;;;;;;;;2.80;99.90;;;1.45;66.73;96044.59;10222247;29;2011;-85
2021/03/17 17:34:56;;;;;;;;;;;2.60;99.90;;;1.37;68.05;96045.66;10232475;29;1862;-89
2021/03/17 17:40:01;;;;;;;;;;;2.60;99.90;;;1.30;68.10;96055.47;10239998;29;2065;-87
2021/03/17 17:45:03;;;;;;;;;;;4.20;99.90;;;1.25;69.27;96055.25;10242463;29;1853;-87
2021/03/17 17:50:05;;;;;;;;;;;2.40;99.90;;;1.27;69.30;96053.22;10244449;29;1942;-87
2021/03/17 17:55:07;;;;;;;;;;;2.40;99.90;;;1.20;70.23;96052.41;10230575;29;2237;-87
2021/03/17 18:00:09;;;;;;;;;;;2.80;99.90;;;1.21;72.13;96054.03;10248637;29;2261;-86
2021/03/17 18:05:11;;;;;;;;;;;2.30;99.90;;;1.20;70.88;96061.16;10263654;28;2356;-85
2021/03/17 18:10:13;;;;;;;;;;;2.30;99.90;;;1.18;71.69;96057.94;10246867;29;2002;-82
2021/03/17 18:15:15;;;;;;;;;;;2.30;99.90;;;1.24;69.75;96064.22;10247025;29;1836;-82
2021/03/17 18:20:17;;;;;;;;;;;2.30;99.90;;;1.20;72.72;96068.31;10245837;28;1998;-83
2021/03/17 18:25:19;;;;;;;;;;;2.30;99.90;;;1.16;71.13;96067.94;10233201;29;1777;-80
2021/03/17 18:30:22;;;;;;;;;;;2.30;99.90;;;1.12;71.77;96079.13;10250400;29;2055;-82
2021/03/17 18:35:24;;;;;;;;;;;2.30;99.90;;;1.14;70.39;96082.38;10233128;29;1820;-82
2021/03/17 18:40:26;;;;;;;;;;;2.20;99.90;;;1.11;71.82;96082.81;10228822;29;2010;-87
2021/03/17 18:45:30;;;;;;;;;;;2.20;99.90;;;1.04;72.20;96088.91;10217209;29;1960;-87
2021/03/17 18:50:32;;;;;;;;;;;2.20;99.90;;;1.00;71.19;96085.03;10244530;29;1895;-88
2021/03/17 18:55:37;;;;;;;;;;;2.10;99.90;;;1.01;73.10;96089.31;10214846;29;2034;-85
2021/03/17 19:00:58;;;;;;;;;;;2.10;99.90;;;1.04;72.52;96091.56;10234004;29;1998;-82
2021/03/17 19:06:00;;;;;;;;;;;2.30;99.90;;;1.03;73.79;96100.53;10219764;29;1965;-84
2021/03/17 19:11:02;;;;;;;;;;;2.20;99.90;;;1.07;74.24;96103.56;10232730;29;1964;-83
2021/03/17 19:16:04;;;;;;;;;;;2.10;99.90;;;1.05;73.43;96097.66;10215386;29;1971;-88
2021/03/17 19:21:06;;;;;;;;;;;3.20;99.90;;;0.98;73.98;96102.16;10221259;29;1872;-85
2021/03/17 19:26:08;;;;;;;;;;;2.10;99.90;;;1.00;75.18;96098.28;10232125;29;3130;-86
